Time;durP1;ratioP1;P1;durP2;ratioP2;P2;SDS_P1;SDS_P2;PMS_P1;PMS_P2;Temp;Humidity;BMP_temperature;BMP_pressure;BME280_temperature;BME280_humidity;BME280_pressure;Samples;Min_cycle;Max_cycle;Signal;HPM_P1;HPM_P2
2022/12/02 00:01:49;;;;;;;;;;;22.10;99.90;;;;;;5052924;28;19913;-63
2022/12/02 00:04:35;;;;;;;;;;;22.50;99.90;;;;;;5054078;28;19916;-60
2022/12/02 00:07:05;;;;;;;;;;;22.60;99.90;;;;;;5053515;28;20439;-62
2022/12/02 00:09:33;;;;;;;;;;;22.70;99.90;;;;;;5054197;28;19909;-62
2022/12/02 00:12:10;;;;;;;;;;;22.60;99.90;;;;;;5054018;28;20339;-61
2022/12/02 00:14:38;;;;;;;;;;;22.80;99.90;;;;;;5053948;28;19935;-62
2022/12/02 00:17:05;;;;;;;;;;;23.00;99.90;;;;;;5052317;28;19924;-62
2022/12/02 00:19:31;;;;;;;;;;;23.00;99.90;;;;;;5052699;28;19913;-61
2022/12/02 00:21:58;;;;;;;;;;;22.90;99.90;;;;;;5053926;28;20015;-62
2022/12/02 00:24:24;;;;;;;;;;;22.70;99.90;;;;;;5053711;28;19955;-61
2022/12/02 00:26:51;;;;;;;;;;;22.70;99.90;;;;;;5053424;28;19921;-61
2022/12/02 00:29:18;;;;;;;;;;;22.80;99.90;;;;;;5053735;28;19999;-61
2022/12/02 00:31:44;;;;;;;;;;;22.80;99.90;;;;;;5051466;28;19966;-62
2022/12/02 00:34:11;;;;;;;;;;;23.00;99.90;;;;;;5053549;28;20290;-62
2022/12/02 00:36:38;;;;;;;;;;;23.00;99.90;;;;;;5053519;28;19913;-62
2022/12/02 00:39:04;;;;;;;;;;;23.30;99.90;;;;;;5053367;28;19958;-63
2022/12/02 00:41:31;;;;;;;;;;;23.20;99.90;;;;;;5053402;28;19916;-62
2022/12/02 00:46:42;;;;;;;;;;;23.50;99.90;;;;;;5051671;28;19967;-63
2022/12/02 00:49:15;;;;;;;;;;;23.40;99.90;;;;;;5053065;28;19920;-62
2022/12/02 00:51:43;;;;;;;;;;;23.40;99.90;;;;;;5053343;28;19939;-62
2022/12/02 00:54:10;;;;;;;;;;;23.50;99.90;;;;;;5053195;28;19909;-64
2022/12/02 00:56:37;;;;;;;;;;;24.00;99.90;;;;;;5053029;28;19921;-62
2022/12/02 00:59:04;;;;;;;;;;;24.30;99.90;;;;;;5053097;28;19909;-63
2022/12/02 01:01:31;;;;;;;;;;;24.20;99.90;;;;;;5052076;28;19920;-66
2022/12/02 01:03:58;;;;;;;;;;;24.30;99.90;;;;;;5035449;28;19920;-63
2022/12/02 01:06:24;;;;;;;;;;;24.60;99.90;;;;;;5053100;28;19915;-63
2022/12/02 01:08:51;;;;;;;;;;;24.20;99.90;;;;;;5052889;28;19916;-61
2022/12/02 01:11:18;;;;;;;;;;;23.60;99.90;;;;;;5055780;28;19913;-63
2022/12/02 01:13:45;;;;;;;;;;;23.40;99.90;;;;;;5059512;28;19916;-63
2022/12/02 01:16:11;;;;;;;;;;;23.20;99.90;;;;;;5058870;28;19917;-63
2022/12/02 01:18:38;;;;;;;;;;;23.10;99.90;;;;;;5058752;28;20015;-63
2022/12/02 01:21:05;;;;;;;;;;;23.20;99.90;;;;;;5049464;28;19917;-63
2022/12/02 01:23:31;;;;;;;;;;;23.60;99.90;;;;;;5039765;28;19913;-63
2022/12/02 01:25:58;;;;;;;;;;;24.20;99.90;;;;;;5039667;28;19913;-63
2022/12/02 01:28:25;;;;;;;;;;;24.30;99.90;;;;;;5039622;28;19921;-63
2022/12/02 01:30:51;;;;;;;;;;;24.60;99.90;;;;;;5050218;28;19915;-63
2022/12/02 01:33:18;;;;;;;;;;;24.70;99.90;;;;;;5057267;28;19913;-63
2022/12/02 01:35:45;;;;;;;;;;;24.70;99.90;;;;;;5059580;28;20364;-63
2022/12/02 01:38:11;;;;;;;;;;;24.10;99.90;;;;;;5059545;28;20264;-62
2022/12/02 01:40:38;;;;;;;;;;;23.80;99.90;;;;;;5059616;28;20395;-63
2022/12/02 01:43:05;;;;;;;;;;;23.90;99.90;;;;;;5059305;28;20653;-64
2022/12/02 01:45:31;;;;;;;;;;;23.70;99.90;;;;;;5054172;28;19913;-66
2022/12/02 01:47:59;;;;;;;;;;;23.70;99.90;;;;;;5049711;28;20040;-63
2022/12/02 01:50:26;;;;;;;;;;;23.60;99.90;;;;;;5050974;28;19913;-64
2022/12/02 01:52:53;;;;;;;;;;;23.60;99.90;;;;;;5049432;28;19917;-63
2022/12/02 01:55:21;;;;;;;;;;;23.40;99.90;;;;;;5050819;28;19913;-63
2022/12/02 01:57:48;;;;;;;;;;;23.30;99.90;;;;;;5050595;28;19933;-63
2022/12/02 02:00:15;;;;;;;;;;;23.10;99.90;;;;;;5049618;28;19943;-63
2022/12/02 02:02:43;;;;;;;;;;;23.10;99.90;;;;;;5049802;28;20313;-65
2022/12/02 02:05:13;;;;;;;;;;;23.30;99.90;;;;;;5050436;28;20355;-64
2022/12/02 02:07:40;;;;;;;;;;;23.30;99.90;;;;;;5050442;28;19947;-62
2022/12/02 02:10:07;;;;;;;;;;;23.40;99.90;;;;;;5050519;28;19913;-62
2022/12/02 02:12:35;;;;;;;;;;;23.30;99.90;;;;;;5049079;28;19916;-63
2022/12/02 02:15:04;;;;;;;;;;;23.30;99.90;;;;;;5050397;28;20008;-62
2022/12/02 02:17:31;;;;;;;;;;;23.40;99.90;;;;;;5050361;28;19913;-63
2022/12/02 02:19:57;;;;;;;;;;;23.40;99.90;;;;;;5049475;28;20290;-68
2022/12/02 02:22:31;;;;;;;;;;;23.40;99.90;;;;;;5054169;28;20399;-66
2022/12/02 02:24:58;;;;;;;;;;;23.20;99.90;;;;;;5055866;28;20366;-65
2022/12/02 02:27:24;;;;;;;;;;;23.20;99.90;;;;;;5056011;28;19924;-66
2022/12/02 02:29:51;;;;;;;;;;;23.30;99.90;;;;;;5053609;28;19917;-69
2022/12/02 02:32:18;;;;;;;;;;;23.50;99.90;;;;;;5046484;28;20706;-70
2022/12/02 02:34:44;;;;;;;;;;;23.60;99.90;;;;;;5046468;28;19925;-70
2022/12/02 02:37:11;;;;;;;;;;;23.70;99.90;;;;;;5047084;28;19923;-68
2022/12/02 02:39:38;;;;;;;;;;;23.60;99.90;;;;;;5047109;28;20379;-69
2022/12/02 02:42:05;;;;;;;;;;;23.40;99.90;;;;;;5046876;28;20082;-65
2022/12/02 02:44:31;;;;;;;;;;;23.30;99.90;;;;;;5046722;28;20521;-69
2022/12/02 02:46:58;;;;;;;;;;;23.10;99.90;;;;;;5046450;28;20355;-66
2022/12/02 02:49:25;;;;;;;;;;;23.10;99.90;;;;;;5045754;28;19962;-69
2022/12/02 02:51:51;;;;;;;;;;;23.40;99.90;;;;;;5046233;28;19921;-69
2022/12/02 02:54:18;;;;;;;;;;;23.20;99.90;;;;;;5046520;28;20287;-69
2022/12/02 02:56:45;;;;;;;;;;;23.20;99.90;;;;;;5046107;28;19932;-69
2022/12/02 02:59:15;;;;;;;;;;;23.20;99.90;;;;;;5046718;28;20538;-68
2022/12/02 03:01:43;;;;;;;;;;;23.00;99.90;;;;;;5046517;28;19959;-70
2022/12/02 03:04:12;;;;;;;;;;;23.00;99.90;;;;;;5045706;28;19916;-70
2022/12/02 03:06:39;;;;;;;;;;;22.90;99.90;;;;;;5046279;28;19971;-70
2022/12/02 03:09:07;;;;;;;;;;;23.00;99.90;;;;;;5046462;28;19974;-65
2022/12/02 03:11:35;;;;;;;;;;;22.90;99.90;;;;;;5046565;28;19913;-68
2022/12/02 03:14:02;;;;;;;;;;;22.90;99.90;;;;;;5045667;28;19916;-69
2022/12/02 03:16:29;;;;;;;;;;;23.00;99.90;;;;;;5054449;28;19909;-67
2022/12/02 03:18:57;;;;;;;;;;;23.10;99.90;;;;;;5054563;28;19909;-68
2022/12/02 03:21:24;;;;;;;;;;;23.40;99.90;;;;;;5054951;28;19909;-62
2022/12/02 03:23:52;;;;;;;;;;;23.20;99.90;;;;;;5054816;28;19909;-63
2022/12/02 03:26:19;;;;;;;;;;;22.90;99.90;;;;;;5054929;28;20031;-63
2022/12/02 03:28:45;;;;;;;;;;;22.90;99.90;;;;;;5050492;28;19963;-62
2022/12/02 03:31:13;;;;;;;;;;;23.00;99.90;;;;;;5034568;28;20300;-63
2022/12/02 03:33:40;;;;;;;;;;;23.00;99.90;;;;;;5034149;28;19909;-62
2022/12/02 03:36:08;;;;;;;;;;;23.00;99.90;;;;;;5033932;28;20360;-63
2022/12/02 03:38:35;;;;;;;;;;;23.00;99.90;;;;;;5034081;28;20383;-62
2022/12/02 03:41:04;;;;;;;;;;;22.80;99.90;;;;;;5014746;28;20311;-62
2022/12/02 03:43:30;;;;;;;;;;;22.80;99.90;;;;;;5051126;28;20252;-63
2022/12/02 03:45:58;;;;;;;;;;;22.90;99.90;;;;;;5053017;28;19909;-64
2022/12/02 03:48:25;;;;;;;;;;;23.20;99.90;;;;;;5053095;28;19917;-63
2022/12/02 03:50:52;;;;;;;;;;;23.00;99.90;;;;;;5052864;28;20433;-63
2022/12/02 03:53:19;;;;;;;;;;;23.00;99.90;;;;;;5053063;28;19916;-63
2022/12/02 03:55:46;;;;;;;;;;;23.10;99.90;;;;;;5053893;28;19908;-62
2022/12/02 03:58:13;;;;;;;;;;;23.10;99.90;;;;;;5053451;28;19920;-63
2022/12/02 04:00:40;;;;;;;;;;;23.10;99.90;;;;;;5053365;28;19917;-63
2022/12/02 04:03:07;;;;;;;;;;;23.10;99.90;;;;;;5053875;28;19909;-63
2022/12/02 04:05:34;;;;;;;;;;;22.90;99.90;;;;;;5054144;28;19924;-63
2022/12/02 04:08:00;;;;;;;;;;;22.70;99.90;;;;;;5053822;28;19927;-63
2022/12/02 04:10:27;;;;;;;;;;;22.80;99.90;;;;;;5053832;28;19908;-68
2022/12/02 04:12:54;;;;;;;;;;;22.80;99.90;;;;;;5052729;28;19932;-68
2022/12/02 04:15:20;;;;;;;;;;;22.80;99.90;;;;;;5053517;28;19913;-69
2022/12/02 04:17:47;;;;;;;;;;;22.60;99.90;;;;;;5053832;28;19908;-66
2022/12/02 04:20:13;;;;;;;;;;;22.40;99.90;;;;;;5053644;28;20270;-68
2022/12/02 04:22:40;;;;;;;;;;;22.50;99.90;;;;;;5053705;28;19913;-67
2022/12/02 04:25:07;;;;;;;;;;;22.70;99.90;;;;;;5053464;28;19947;-69
2022/12/02 04:27:34;;;;;;;;;;;23.00;99.90;;;;;;5052882;28;19917;-67
2022/12/02 04:30:00;;;;;;;;;;;22.80;99.90;;;;;;5053708;28;19913;-68
2022/12/02 04:32:27;;;;;;;;;;;22.60;99.90;;;;;;5053579;28;19909;-69
2022/12/02 04:34:54;;;;;;;;;;;22.70;99.90;;;;;;5053202;28;20047;-68
2022/12/02 04:37:20;;;;;;;;;;;22.70;99.90;;;;;;5053577;28;19948;-69
2022/12/02 04:39:47;;;;;;;;;;;22.60;99.90;;;;;;5053389;28;19912;-69
2022/12/02 04:42:13;;;;;;;;;;;22.70;99.90;;;;;;5052452;28;20058;-69
2022/12/02 04:44:43;;;;;;;;;;;22.80;99.90;;;;;;5053208;28;19964;-69
2022/12/02 04:47:09;;;;;;;;;;;22.90;99.90;;;;;;5051852;28;20395;-69
2022/12/02 04:49:36;;;;;;;;;;;22.80;99.90;;;;;;5053555;28;19909;-69
2022/12/02 04:52:03;;;;;;;;;;;22.50;99.90;;;;;;5053408;28;19935;-69
2022/12/02 04:54:30;;;;;;;;;;;22.70;99.90;;;;;;5053321;28;20428;-69
2022/12/02 04:56:56;;;;;;;;;;;22.80;99.90;;;;;;5050073;28;20350;-67
2022/12/02 04:59:23;;;;;;;;;;;22.90;99.90;;;;;;5053302;28;20275;-69
2022/12/02 05:01:50;;;;;;;;;;;22.70;99.90;;;;;;5051120;28;20285;-68
2022/12/02 05:04:16;;;;;;;;;;;22.60;99.90;;;;;;5053183;28;19995;-69
2022/12/02 05:06:43;;;;;;;;;;;22.60;99.90;;;;;;5053109;28;19909;-68
2022/12/02 05:09:10;;;;;;;;;;;22.60;99.90;;;;;;5052773;28;19939;-69
2022/12/02 05:11:36;;;;;;;;;;;22.50;99.90;;;;;;5052018;28;19959;-68
2022/12/02 05:14:03;;;;;;;;;;;22.30;99.90;;;;;;5052403;28;19913;-67
2022/12/02 05:16:30;;;;;;;;;;;22.40;99.90;;;;;;5052863;28;19999;-69
2022/12/02 05:18:56;;;;;;;;;;;22.40;99.90;;;;;;5052947;28;19909;-68
2022/12/02 05:21:23;;;;;;;;;;;22.30;99.90;;;;;;5052907;28;19955;-67
2022/12/02 05:23:50;;;;;;;;;;;22.30;99.90;;;;;;5053125;28;19924;-67
2022/12/02 05:26:16;;;;;;;;;;;22.40;99.90;;;;;;5052015;28;19916;-68
2022/12/02 05:28:43;;;;;;;;;;;22.40;99.90;;;;;;5051729;28;19928;-69
2022/12/02 05:31:09;;;;;;;;;;;22.60;99.90;;;;;;5052136;28;19992;-68
2022/12/02 05:33:36;;;;;;;;;;;22.60;99.90;;;;;;5052833;28;19909;-68
2022/12/02 05:36:03;;;;;;;;;;;22.70;99.90;;;;;;5053005;28;19909;-67
2022/12/02 05:38:30;;;;;;;;;;;22.60;99.90;;;;;;5052928;28;19909;-65
2022/12/02 05:40:56;;;;;;;;;;;22.40;99.90;;;;;;5051626;28;19909;-68
2022/12/02 05:43:24;;;;;;;;;;;22.30;99.90;;;;;;5052802;28;19920;-63
2022/12/02 05:45:52;;;;;;;;;;;22.30;99.90;;;;;;5052124;28;19942;-64
2022/12/02 05:48:19;;;;;;;;;;;22.10;99.90;;;;;;5052153;28;20030;-64
2022/12/02 05:50:46;;;;;;;;;;;21.90;99.90;;;;;;5051100;28;20048;-63
2022/12/02 05:53:23;;;;;;;;;;;21.90;99.90;;;;;;5050437;28;19909;-63
2022/12/02 05:55:50;;;;;;;;;;;22.00;99.90;;;;;;5048119;28;20011;-67
2022/12/02 05:58:17;;;;;;;;;;;22.10;99.90;;;;;;5050938;28;19920;-63
2022/12/02 06:00:44;;;;;;;;;;;22.10;99.90;;;;;;5053712;28;19913;-68
2022/12/02 06:03:15;;;;;;;;;;;21.90;99.90;;;;;;5053153;28;20359;-68
2022/12/02 06:05:42;;;;;;;;;;;22.00;99.90;;;;;;5053924;28;19909;-63
2022/12/02 06:08:21;;;;;;;;;;;21.90;99.90;;;;;;5054082;28;20283;-62
2022/12/02 06:10:52;;;;;;;;;;;21.60;99.90;;;;;;5053918;28;19978;-63
2022/12/02 06:13:20;;;;;;;;;;;21.50;99.90;;;;;;5053639;28;20507;-65
2022/12/02 06:15:47;;;;;;;;;;;21.70;99.90;;;;;;5053781;28;20270;-63
2022/12/02 06:18:15;;;;;;;;;;;21.70;99.90;;;;;;5052717;28;19944;-63
2022/12/02 06:20:42;;;;;;;;;;;21.80;99.90;;;;;;5053889;28;19920;-63
2022/12/02 06:23:14;;;;;;;;;;;21.60;99.90;;;;;;5053613;28;19916;-63
2022/12/02 06:25:41;;;;;;;;;;;21.70;99.90;;;;;;5053954;28;20245;-63
2022/12/02 06:28:13;;;;;;;;;;;21.70;99.90;;;;;;5053453;28;19978;-63
2022/12/02 06:30:40;;;;;;;;;;;21.50;99.90;;;;;;5053471;28;19963;-63
2022/12/02 06:33:13;;;;;;;;;;;21.50;99.90;;;;;;5052457;28;19912;-63
2022/12/02 06:35:40;;;;;;;;;;;21.50;99.90;;;;;;5053649;28;19908;-64
2022/12/02 06:38:14;;;;;;;;;;;21.60;99.90;;;;;;5053622;28;20315;-62
2022/12/02 06:40:41;;;;;;;;;;;21.60;99.90;;;;;;5053596;28;19976;-63
2022/12/02 06:43:21;;;;;;;;;;;21.40;99.90;;;;;;5052052;28;19924;-63
2022/12/02 06:45:47;;;;;;;;;;;21.50;99.90;;;;;;5052621;28;19995;-62
2022/12/02 06:48:23;;;;;;;;;;;21.40;99.90;;;;;;5053198;28;19928;-63
2022/12/02 06:50:50;;;;;;;;;;;21.50;99.90;;;;;;5053082;28;19912;-64
2022/12/02 06:53:26;;;;;;;;;;;21.60;99.90;;;;;;5053343;28;20003;-63
2022/12/02 06:56:20;;;;;;;;;;;21.40;99.90;;;;;;5053023;28;19963;-63
2022/12/02 06:58:49;;;;;;;;;;;21.30;99.90;;;;;;5050506;28;19920;-64
2022/12/02 07:01:21;;;;;;;;;;;21.20;99.90;;;;;;5051208;28;20219;-65
2022/12/02 07:04:11;;;;;;;;;;;21.20;99.90;;;;;;5052005;28;19921;-64
2022/12/02 07:06:43;;;;;;;;;;;21.10;99.90;;;;;;5047133;28;19909;-63
2022/12/02 07:09:12;;;;;;;;;;;21.10;99.90;;;;;;5052306;28;19916;-64
2022/12/02 07:11:53;;;;;;;;;;;21.10;99.90;;;;;;5049678;28;19912;-67
2022/12/02 07:14:40;;;;;;;;;;;21.20;99.90;;;;;;5046708;28;19966;-68
2022/12/02 07:17:16;;;;;;;;;;;21.10;99.90;;;;;;5045378;28;19970;-68
2022/12/02 07:19:44;;;;;;;;;;;21.10;99.90;;;;;;5046464;28;19987;-67
2022/12/02 07:22:18;;;;;;;;;;;21.00;99.90;;;;;;5046259;28;20356;-68
2022/12/02 07:24:55;;;;;;;;;;;20.90;99.90;;;;;;5045993;28;19913;-68
2022/12/02 07:27:26;;;;;;;;;;;20.80;99.90;;;;;;5046449;28;20361;-67
2022/12/02 07:29:53;;;;;;;;;;;20.60;99.90;;;;;;5045770;28;19913;-67
2022/12/02 07:32:20;;;;;;;;;;;20.60;99.90;;;;;;5044935;28;20414;-66
2022/12/02 07:34:47;;;;;;;;;;;20.50;99.90;;;;;;5046087;28;19920;-67
2022/12/02 07:37:13;;;;;;;;;;;20.50;99.90;;;;;;5044034;28;20351;-65
2022/12/02 07:39:40;;;;;;;;;;;20.40;99.90;;;;;;5046171;28;20520;-66
2022/12/02 07:42:07;;;;;;;;;;;20.30;99.90;;;;;;5045949;28;19913;-66
2022/12/02 07:44:33;;;;;;;;;;;20.20;99.90;;;;;;5045859;28;20004;-64
2022/12/02 07:47:00;;;;;;;;;;;20.20;99.90;;;;;;5044662;28;19935;-67
2022/12/02 07:49:27;;;;;;;;;;;20.30;99.90;;;;;;5045384;28;19917;-66
2022/12/02 07:51:54;;;;;;;;;;;20.30;99.90;;;;;;5045737;28;19917;-65
2022/12/02 07:54:20;;;;;;;;;;;20.20;99.90;;;;;;5045859;28;20099;-65
2022/12/02 07:56:47;;;;;;;;;;;20.10;99.90;;;;;;5045202;28;20256;-65
2022/12/02 07:59:14;;;;;;;;;;;20.10;99.90;;;;;;5045590;28;19912;-66
2022/12/02 08:01:41;;;;;;;;;;;20.10;99.90;;;;;;5044619;28;20481;-66
2022/12/02 08:04:08;;;;;;;;;;;20.20;99.90;;;;;;5044538;28;19917;-67
2022/12/02 08:06:35;;;;;;;;;;;20.00;99.90;;;;;;5042741;28;19975;-67
2022/12/02 08:09:01;;;;;;;;;;;20.00;99.90;;;;;;5045130;28;19921;-67
2022/12/02 08:11:28;;;;;;;;;;;20.00;99.90;;;;;;5045357;28;19921;-66
2022/12/02 08:13:54;;;;;;;;;;;19.90;99.90;;;;;;5044079;28;19967;-66
2022/12/02 08:16:21;;;;;;;;;;;19.80;99.90;;;;;;5045173;28;19912;-66
2022/12/02 08:18:48;;;;;;;;;;;19.70;99.90;;;;;;5044360;28;20370;-66
2022/12/02 08:21:14;;;;;;;;;;;19.70;99.90;;;;;;5044629;28;20432;-66
2022/12/02 08:23:41;;;;;;;;;;;19.60;99.90;;;;;;5045044;28;19913;-66
2022/12/02 08:26:08;;;;;;;;;;;19.60;99.90;;;;;;5044932;28;20477;-66
2022/12/02 08:28:34;;;;;;;;;;;19.70;99.90;;;;;;5052637;28;20378;-66
2022/12/02 08:31:01;;;;;;;;;;;19.70;99.90;;;;;;5052562;28;19912;-66
2022/12/02 08:33:28;;;;;;;;;;;19.60;99.90;;;;;;5053489;28;19920;-66
2022/12/02 08:35:55;;;;;;;;;;;19.60;99.90;;;;;;5053657;28;19909;-66
2022/12/02 08:38:21;;;;;;;;;;;19.70;99.90;;;;;;5053570;28;20413;-66
2022/12/02 08:40:48;;;;;;;;;;;19.60;99.90;;;;;;5051106;28;20279;-66
2022/12/02 08:43:15;;;;;;;;;;;19.60;99.90;;;;;;5051146;28;20386;-66
2022/12/02 08:45:42;;;;;;;;;;;19.70;99.90;;;;;;5042870;28;19923;-66
2022/12/02 08:48:09;;;;;;;;;;;19.70;99.90;;;;;;5044897;28;20399;-66
2022/12/02 08:50:35;;;;;;;;;;;19.70;99.90;;;;;;5044883;28;19920;-67
2022/12/02 08:53:03;;;;;;;;;;;19.60;99.90;;;;;;5044570;28;19923;-66
2022/12/02 08:55:29;;;;;;;;;;;19.70;99.90;;;;;;5044654;28;19923;-66
2022/12/02 08:57:56;;;;;;;;;;;19.50;99.90;;;;;;5044222;28;19998;-66
2022/12/02 09:00:23;;;;;;;;;;;19.50;99.90;;;;;;5043264;28;19916;-67
2022/12/02 09:02:49;;;;;;;;;;;19.50;99.90;;;;;;5044192;28;19962;-68
2022/12/02 09:05:16;;;;;;;;;;;19.40;99.90;;;;;;5044459;28;19913;-68
2022/12/02 09:07:44;;;;;;;;;;;19.30;99.90;;;;;;5044312;28;20496;-66
2022/12/02 09:10:12;;;;;;;;;;;19.30;99.90;;;;;;5049225;28;19913;-67
2022/12/02 09:12:38;;;;;;;;;;;19.30;99.90;;;;;;5052989;28;20025;-67
2022/12/02 09:15:05;;;;;;;;;;;19.40;99.90;;;;;;5051986;28;20004;-67
2022/12/02 09:17:32;;;;;;;;;;;19.30;99.90;;;;;;5050470;28;19912;-66
2022/12/02 09:19:59;;;;;;;;;;;19.30;99.90;;;;;;5053098;28;19959;-67
2022/12/02 09:22:25;;;;;;;;;;;19.30;99.90;;;;;;5052999;28;19986;-67
2022/12/02 09:24:52;;;;;;;;;;;19.30;99.90;;;;;;5052778;28;19916;-67
2022/12/02 09:27:19;;;;;;;;;;;19.40;99.90;;;;;;5052734;28;19913;-67
2022/12/02 09:29:46;;;;;;;;;;;19.50;99.90;;;;;;5051918;28;19913;-67
2022/12/02 09:32:12;;;;;;;;;;;19.40;99.90;;;;;;5054190;28;19913;-66
2022/12/02 09:34:39;;;;;;;;;;;19.40;99.90;;;;;;5056936;28;19909;-67
2022/12/02 09:37:06;;;;;;;;;;;19.40;99.90;;;;;;5056387;28;19909;-67
2022/12/02 09:39:32;;;;;;;;;;;19.30;99.90;;;;;;5054922;28;20283;-66
2022/12/02 09:41:59;;;;;;;;;;;19.20;99.90;;;;;;5056607;28;20015;-66
2022/12/02 09:44:26;;;;;;;;;;;19.10;99.90;;;;;;5055692;28;19916;-66
2022/12/02 09:46:53;;;;;;;;;;;19.00;99.90;;;;;;5055674;28;19919;-67
2022/12/02 09:49:19;;;;;;;;;;;19.00;99.90;;;;;;5056666;28;19909;-65
2022/12/02 09:51:46;;;;;;;;;;;19.10;99.90;;;;;;5056683;28;19909;-66
2022/12/02 09:54:15;;;;;;;;;;;19.10;99.90;;;;;;5056632;28;20368;-66
2022/12/02 09:56:41;;;;;;;;;;;19.10;99.90;;;;;;5055586;28;19940;-66
2022/12/02 09:59:16;;;;;;;;;;;19.10;99.90;;;;;;5052809;28;20274;-66
2022/12/02 10:01:45;;;;;;;;;;;19.00;99.90;;;;;;5054561;28;19959;-66
2022/12/02 10:04:13;;;;;;;;;;;19.00;99.90;;;;;;5054597;28;19909;-66
2022/12/02 10:06:40;;;;;;;;;;;18.90;99.90;;;;;;5054446;28;19909;-66
2022/12/02 10:09:12;;;;;;;;;;;18.90;99.90;;;;;;5053890;28;20011;-66
2022/12/02 10:11:39;;;;;;;;;;;18.90;99.90;;;;;;5054769;28;20332;-67
2022/12/02 10:14:06;;;;;;;;;;;18.90;99.90;;;;;;5055262;28;19919;-66
2022/12/02 10:16:33;;;;;;;;;;;18.90;99.90;;;;;;5056102;28;20004;-65
2022/12/02 10:19:01;;;;;;;;;;;18.90;99.90;;;;;;5055889;28;19916;-66
2022/12/02 10:21:28;;;;;;;;;;;18.90;99.90;;;;;;5056139;28;19950;-65
2022/12/02 10:23:56;;;;;;;;;;;18.90;99.90;;;;;;5056052;28;20252;-66
2022/12/02 10:26:23;;;;;;;;;;;18.90;99.90;;;;;;5056092;28;19909;-65
2022/12/02 10:29:01;;;;;;;;;;;18.90;99.90;;;;;;5054333;28;19924;-66
2022/12/02 10:31:28;;;;;;;;;;;18.80;99.90;;;;;;5055278;28;19913;-66
2022/12/02 10:33:55;;;;;;;;;;;18.80;99.90;;;;;;5055743;28;20276;-66
2022/12/02 10:36:32;;;;;;;;;;;18.80;99.90;;;;;;5055861;28;19909;-65
2022/12/02 10:39:17;;;;;;;;;;;18.80;99.90;;;;;;5055557;28;19920;-65
2022/12/02 10:41:44;;;;;;;;;;;18.80;99.90;;;;;;5055723;28;19931;-66
2022/12/02 10:44:15;;;;;;;;;;;18.80;99.90;;;;;;5053800;28;20446;-66
2022/12/02 10:46:42;;;;;;;;;;;18.90;99.90;;;;;;5055704;28;19934;-65
2022/12/02 10:49:16;;;;;;;;;;;18.90;99.90;;;;;;5055344;28;19963;-65
2022/12/02 10:51:42;;;;;;;;;;;18.90;99.90;;;;;;5055474;28;19970;-65
2022/12/02 10:54:25;;;;;;;;;;;18.90;99.90;;;;;;5055434;28;19913;-65
2022/12/02 10:56:51;;;;;;;;;;;18.90;99.90;;;;;;5054462;28;19921;-65
2022/12/02 10:59:18;;;;;;;;;;;18.80;99.90;;;;;;5055067;28;19952;-65
2022/12/02 11:01:45;;;;;;;;;;;18.80;99.90;;;;;;5055281;28;19945;-65
2022/12/02 11:04:13;;;;;;;;;;;18.80;99.90;;;;;;5055383;28;20268;-65
2022/12/02 11:06:40;;;;;;;;;;;18.70;99.90;;;;;;5055270;28;20371;-65
2022/12/02 11:09:07;;;;;;;;;;;18.80;99.90;;;;;;5054879;28;19916;-66
2022/12/02 11:11:34;;;;;;;;;;;18.80;99.90;;;;;;5055356;28;19935;-66
2022/12/02 11:14:02;;;;;;;;;;;18.80;99.90;;;;;;5054096;28;19955;-66
2022/12/02 11:16:28;;;;;;;;;;;18.70;99.90;;;;;;5055218;28;19962;-70
2022/12/02 11:19:13;;;;;;;;;;;18.70;99.90;;;;;;5054008;28;19914;-70
2022/12/02 11:21:41;;;;;;;;;;;18.70;99.90;;;;;;5054082;28;19916;-70
2022/12/02 11:24:23;;;;;;;;;;;18.70;99.90;;;;;;5054435;28;19939;-70
2022/12/02 11:27:02;;;;;;;;;;;18.70;99.90;;;;;;5053901;28;19908;-70
2022/12/02 11:29:39;;;;;;;;;;;18.70;99.90;;;;;;5054068;28;19924;-70
2022/12/02 11:32:17;;;;;;;;;;;18.70;99.90;;;;;;5055042;28;20013;-69
2022/12/02 11:34:44;;;;;;;;;;;18.70;99.90;;;;;;5054261;28;19934;-68
2022/12/02 11:37:29;;;;;;;;;;;18.70;99.90;;;;;;5054473;28;20406;-70
2022/12/02 11:39:58;;;;;;;;;;;18.70;99.90;;;;;;5053290;28;20031;-70
2022/12/02 11:42:27;;;;;;;;;;;18.70;99.90;;;;;;5053274;28;19908;-70
2022/12/02 11:44:54;;;;;;;;;;;18.70;99.90;;;;;;5054258;28;19955;-67
2022/12/02 11:47:31;;;;;;;;;;;18.60;99.90;;;;;;5054635;28;19913;-66
2022/12/02 11:50:11;;;;;;;;;;;18.60;99.90;;;;;;5054504;28;19916;-66
2022/12/02 11:52:39;;;;;;;;;;;18.60;99.90;;;;;;5054582;28;19909;-67
2022/12/02 11:55:17;;;;;;;;;;;18.70;99.90;;;;;;5054210;28;19908;-67
2022/12/02 11:57:43;;;;;;;;;;;18.70;99.90;;;;;;5052911;28;19979;-67
2022/12/02 12:00:27;;;;;;;;;;;18.70;99.90;;;;;;5043413;28;19913;-67
2022/12/02 12:03:07;;;;;;;;;;;18.60;99.90;;;;;;5034226;28;20364;-66
2022/12/02 12:05:34;;;;;;;;;;;18.60;99.90;;;;;;5034388;28;20000;-67
2022/12/02 12:08:01;;;;;;;;;;;18.60;99.90;;;;;;5034289;28;20294;-67
2022/12/02 12:10:32;;;;;;;;;;;18.60;99.90;;;;;;5034353;28;19967;-66
2022/12/02 12:13:21;;;;;;;;;;;18.50;99.90;;;;;;5052760;28;19919;-67
2022/12/02 12:15:47;;;;;;;;;;;18.50;99.90;;;;;;5054011;28;19912;-66
2022/12/02 12:18:32;;;;;;;;;;;18.50;99.90;;;;;;5053971;28;19913;-66
2022/12/02 12:20:58;;;;;;;;;;;18.60;99.90;;;;;;5053860;28;19913;-66
2022/12/02 12:23:29;;;;;;;;;;;18.60;99.90;;;;;;5054041;28;19909;-65
2022/12/02 12:25:56;;;;;;;;;;;18.50;99.90;;;;;;5052902;28;20011;-66
2022/12/02 12:28:33;;;;;;;;;;;18.40;99.90;;;;;;5052866;28;19927;-66
2022/12/02 12:31:00;;;;;;;;;;;18.40;99.90;;;;;;5053629;28;19908;-65
2022/12/02 12:33:27;;;;;;;;;;;18.40;99.90;;;;;;5053733;28;20321;-67
2022/12/02 12:35:54;;;;;;;;;;;18.40;99.90;;;;;;5053844;28;19940;-66
2022/12/02 12:38:21;;;;;;;;;;;18.40;99.90;;;;;;5053535;28;20269;-66
2022/12/02 12:40:48;;;;;;;;;;;18.50;99.90;;;;;;5052585;28;19966;-66
2022/12/02 12:43:15;;;;;;;;;;;18.50;99.90;;;;;;5053469;28;19920;-67
2022/12/02 12:45:41;;;;;;;;;;;18.50;99.90;;;;;;5053568;28;19909;-66
2022/12/02 12:48:08;;;;;;;;;;;18.40;99.90;;;;;;5053399;28;19920;-66
2022/12/02 12:50:35;;;;;;;;;;;18.40;99.90;;;;;;5053463;28;19916;-67
2022/12/02 12:53:01;;;;;;;;;;;18.50;99.90;;;;;;5053299;28;19908;-66
2022/12/02 12:55:28;;;;;;;;;;;18.50;99.90;;;;;;5051135;28;19912;-66
2022/12/02 12:57:55;;;;;;;;;;;18.40;99.90;;;;;;5053044;28;19921;-66
2022/12/02 13:00:22;;;;;;;;;;;18.40;99.90;;;;;;5053263;28;19909;-66
2022/12/02 13:02:48;;;;;;;;;;;18.30;99.90;;;;;;5052953;28;19916;-66
2022/12/02 13:05:15;;;;;;;;;;;18.30;99.90;;;;;;5053196;28;19908;-66
2022/12/02 13:07:42;;;;;;;;;;;18.30;99.90;;;;;;5052698;28;19917;-67
2022/12/02 13:10:09;;;;;;;;;;;18.30;99.90;;;;;;5052281;28;20016;-66
2022/12/02 13:12:35;;;;;;;;;;;18.30;99.90;;;;;;5053019;28;19909;-68
2022/12/02 13:15:02;;;;;;;;;;;18.30;99.90;;;;;;5053061;28;19909;-68
2022/12/02 13:17:29;;;;;;;;;;;18.30;99.90;;;;;;5053094;28;19916;-66
2022/12/02 13:19:56;;;;;;;;;;;18.20;99.90;;;;;;5053158;28;19934;-67
2022/12/02 13:22:22;;;;;;;;;;;18.20;99.90;;;;;;5052703;28;19932;-66
2022/12/02 13:24:49;;;;;;;;;;;18.20;99.90;;;;;;5052143;28;19913;-67
2022/12/02 13:27:16;;;;;;;;;;;18.10;99.90;;;;;;5052808;28;20542;-67
2022/12/02 13:29:43;;;;;;;;;;;18.10;99.90;;;;;;5053047;28;20406;-66
2022/12/02 13:32:09;;;;;;;;;;;18.10;99.90;;;;;;5053093;28;19908;-66
2022/12/02 13:34:36;;;;;;;;;;;18.00;99.90;;;;;;5052963;28;19996;-66
2022/12/02 13:37:02;;;;;;;;;;;18.10;99.90;;;;;;5052820;28;19955;-67
2022/12/02 13:39:29;;;;;;;;;;;18.00;99.90;;;;;;5052182;28;20003;-66
2022/12/02 13:41:56;;;;;;;;;;;18.00;99.90;;;;;;5052191;28;20386;-66
2022/12/02 13:44:22;;;;;;;;;;;18.10;99.90;;;;;;5053038;28;19909;-66
2022/12/02 13:46:49;;;;;;;;;;;18.00;99.90;;;;;;5052724;28;20348;-66
2022/12/02 13:49:16;;;;;;;;;;;18.00;99.90;;;;;;5053028;28;19923;-65
2022/12/02 13:51:42;;;;;;;;;;;18.00;99.90;;;;;;5053027;28;19909;-66
2022/12/02 13:54:09;;;;;;;;;;;18.00;99.90;;;;;;5052086;28;19913;-65
2022/12/02 13:56:36;;;;;;;;;;;18.00;99.90;;;;;;5052616;28;19921;-66
2022/12/02 13:59:02;;;;;;;;;;;18.00;99.90;;;;;;5052491;28;19909;-66
2022/12/02 14:01:29;;;;;;;;;;;18.00;99.90;;;;;;5052709;28;19916;-67
2022/12/02 14:03:56;;;;;;;;;;;17.90;99.90;;;;;;5052918;28;20363;-66
2022/12/02 14:06:22;;;;;;;;;;;17.90;99.90;;;;;;5052851;28;19909;-66
2022/12/02 14:08:49;;;;;;;;;;;17.90;99.90;;;;;;5051535;28;19916;-66
2022/12/02 14:11:16;;;;;;;;;;;17.90;99.90;;;;;;5051835;28;20347;-69
2022/12/02 14:13:43;;;;;;;;;;;17.80;99.90;;;;;;5052471;28;19916;-66
2022/12/02 14:16:10;;;;;;;;;;;17.80;99.90;;;;;;5051527;28;20007;-68
2022/12/02 14:18:36;;;;;;;;;;;17.70;99.90;;;;;;5052663;28;19909;-67
2022/12/02 14:21:03;;;;;;;;;;;17.70;99.90;;;;;;5055983;28;19909;-66
2022/12/02 14:23:30;;;;;;;;;;;17.70;99.90;;;;;;5056164;28;20326;-67
2022/12/02 14:25:56;;;;;;;;;;;17.70;99.90;;;;;;5056349;28;19909;-67